Time;durP1;ratioP1;P1;durP2;ratioP2;P2;SDS_P1;SDS_P2;PMS_P1;PMS_P2;Temp;Humidity;BMP_temperature;BMP_pressure;BME280_temperature;BME280_humidity;BME280_pressure;Samples;Min_cycle;Max_cycle;Signal;HPM_P1;HPM_P2
2023/04/14 04:06:25;;;;;;;;;43.25;38.75;;;;;;;;6110594;39;10000404;-58
2023/04/14 04:12:36;;;;;;;;;38.75;37.00;;;;;;;;6491190;46;8867;-58
2023/04/14 04:18:45;;;;;;;;;42.25;35.25;;;;;;;;6491321;46;8878;-58
2023/04/14 04:24:55;;;;;;;;;35.00;31.00;;;;;;;;6492111;39;8883;-58
2023/04/14 04:31:23;;;;;;;;;39.25;35.25;;;;;;;;6490336;46;8987;-59
2023/04/14 04:37:29;;;;;;;;;30.00;28.00;;;;;;;;6489424;31;8946;-59
2023/04/14 04:43:35;;;;;;;;;38.50;35.50;;;;;;;;6490960;39;9026;-59
2023/04/14 04:49:37;;;;;;;;;28.50;24.75;;;;;;;;6491297;46;8868;-59
2023/04/14 04:55:43;;;;;;;;;35.75;31.25;;;;;;;;6490548;47;8932;-58
2023/04/14 05:01:50;;;;;;;;;31.50;30.25;;;;;;;;6491612;39;9021;-60
2023/04/14 05:14:33;;;;;;;;;31.25;29.75;;;;;;;;6489409;31;8965;-58
2023/04/14 05:20:40;;;;;;;;;36.25;33.75;;;;;;;;6491199;39;8926;-59
2023/04/14 05:26:45;;;;;;;;;37.00;29.75;;;;;;;;6489487;39;8901;-58
2023/04/14 05:33:08;;;;;;;;;29.00;27.25;;;;;;;;6486906;31;8908;-58
2023/04/14 05:39:18;;;;;;;;;25.25;23.75;;;;;;;;6486715;31;8960;-59
2023/04/14 05:45:27;;;;;;;;;24.75;23.00;;;;;;;;6486150;39;8938;-58
2023/04/14 05:51:35;;;;;;;;;29.00;25.25;;;;;;;;6486308;46;9023;-59
2023/04/14 05:57:37;;;;;;;;;25.75;24.00;;;;;;;;6488533;39;9487;-57
2023/04/14 06:03:40;;;;;;;;;29.50;28.00;;;;;;;;6490849;39;8866;-57
2023/04/14 06:09:45;;;;;;;;;26.75;25.25;;;;;;;;6489912;31;8909;-57
2023/04/14 06:15:50;;;;;;;;;23.75;22.00;;;;;;;;6489274;39;9831;-58
2023/04/14 06:21:55;;;;;;;;;22.75;19.25;;;;;;;;6489865;39;9549;-58
2023/04/14 06:28:03;;;;;;;;;19.50;18.00;;;;;;;;6489439;39;8903;-58
2023/04/14 06:34:05;;;;;;;;;20.00;19.00;;;;;;;;6490527;39;8884;-57
2023/04/14 06:40:09;;;;;;;;;20.00;17.75;;;;;;;;6489022;39;9023;-57
2023/04/14 06:46:13;;;;;;;;;23.00;20.75;;;;;;;;6489028;39;8880;-57
2023/04/14 06:52:16;;;;;;;;;23.75;23.75;;;;;;;;6490297;39;8878;-58
2023/04/14 06:58:21;;;;;;;;;21.25;18.00;;;;;;;;6489368;31;8877;-58
2023/04/14 07:04:25;;;;;;;;;24.00;21.00;;;;;;;;6488933;39;8874;-58
2023/04/14 07:10:28;;;;;;;;;21.33;20.67;;;;;;;;6489155;39;8934;-58
2023/04/14 07:16:31;;;;;;;;;16.67;16.00;;;;;;;;6489515;46;8894;-58
2023/04/14 07:22:33;;;;;;;;;14.67;14.67;;;;;;;;6489394;39;8892;-58
2023/04/14 07:28:36;;;;;;;;;19.33;18.67;;;;;;;;6488261;39;8893;-58
2023/04/14 07:34:44;;;;;;;;;19.00;19.00;;;;;;;;6489458;47;8809;-57
2023/04/14 07:40:47;;;;;;;;;16.33;16.00;;;;;;;;6488778;39;8942;-58
2023/04/14 07:46:54;;;;;;;;;15.00;13.67;;;;;;;;6489277;39;9675;-57
2023/04/14 07:52:58;;;;;;;;;17.67;16.00;;;;;;;;6489533;39;8922;-58
2023/04/14 07:59:02;;;;;;;;;16.00;14.67;;;;;;;;6489511;31;9073;-58
2023/04/14 08:05:07;;;;;;;;;16.00;15.67;;;;;;;;6490547;31;9002;-58
2023/04/14 08:11:11;;;;;;;;;15.67;15.00;;;;;;;;6488567;39;9101;-58
2023/04/14 08:17:17;;;;;;;;;18.00;18.00;;;;;;;;6488673;39;8909;-57
2023/04/14 08:23:21;;;;;;;;;17.33;17.33;;;;;;;;6488001;47;8908;-55
2023/04/14 08:29:25;;;;;;;;;14.67;14.67;;;;;;;;6488138;47;8961;-59
2023/04/14 08:35:27;;;;;;;;;18.33;17.00;;;;;;;;6490745;39;8840;-59
2023/04/14 08:41:41;;;;;;;;;14.33;14.00;;;;;;;;6490214;46;8962;-60
2023/04/14 08:47:45;;;;;;;;;17.67;15.00;;;;;;;;6489664;46;8873;-59
2023/04/14 08:53:51;;;;;;;;;16.00;13.00;;;;;;;;6492231;46;9062;-55
2023/04/14 08:59:59;;;;;;;;;16.33;15.67;;;;;;;;6491228;39;8922;-58
2023/04/14 09:06:02;;;;;;;;;15.33;12.33;;;;;;;;6492786;31;8841;-58
2023/04/14 09:12:08;;;;;;;;;17.00;17.00;;;;;;;;6491494;39;8877;-58
2023/04/14 09:18:11;;;;;;;;;17.33;17.00;;;;;;;;6491542;39;8886;-58
2023/04/14 09:24:23;;;;;;;;;13.00;12.00;;;;;;;;6491901;39;8879;-58
2023/04/14 09:30:27;;;;;;;;;16.00;16.00;;;;;;;;6491408;39;8907;-58
2023/04/14 09:36:30;;;;;;;;;14.33;12.67;;;;;;;;6491863;31;8808;-59
2023/04/14 09:42:41;;;;;;;;;14.67;14.67;;;;;;;;6491705;31;9032;-57
2023/04/14 09:48:54;;;;;;;;;10.67;10.67;;;;;;;;6490725;39;9304;-58
2023/04/14 09:54:58;;;;;;;;;12.00;12.00;;;;;;;;6490267;31;8912;-58
2023/04/14 10:01:10;;;;;;;;;13.67;12.33;;;;;;;;6489736;39;8843;-57
2023/04/14 10:07:17;;;;;;;;;16.67;15.00;;;;;;;;6489360;46;8995;-57
2023/04/14 10:13:21;;;;;;;;;13.67;12.00;;;;;;;;6489254;39;8876;-56
2023/04/14 10:19:25;;;;;;;;;8.33;8.33;;;;;;;;6489582;46;8872;-57
2023/04/14 10:25:30;;;;;;;;;8.00;8.00;;;;;;;;6489448;31;8868;-57
2023/04/14 10:31:41;;;;;;;;;7.25;6.25;;;;;;;;6489111;39;8873;-57
2023/04/14 10:37:51;;;;;;;;;8.00;7.50;;;;;;;;6308605;36;10000492;-57
2023/04/14 10:43:56;;;;;;;;;9.33;7.00;;;;;;;;6488620;31;12408;-59
2023/04/14 10:50:09;;;;;;;;;9.67;8.67;;;;;;;;6489740;39;9423;-59
2023/04/14 10:56:13;;;;;;;;;10.25;10.25;;;;;;;;6489219;46;8851;-58
2023/04/14 11:02:26;;;;;;;;;8.00;8.00;;;;;;;;6489577;39;9086;-59
2023/04/14 11:08:35;;;;;;;;;11.25;11.25;;;;;;;;6490002;39;8897;-58
2023/04/14 11:14:38;;;;;;;;;9.50;8.25;;;;;;;;6488688;39;8874;-58
2023/04/14 11:20:41;;;;;;;;;7.25;6.00;;;;;;;;6489456;39;8871;-60
2023/04/14 11:26:44;;;;;;;;;5.50;5.50;;;;;;;;6488908;47;8879;-58
2023/04/14 11:32:50;;;;;;;;;7.50;6.50;;;;;;;;6489230;39;8895;-59
2023/04/14 11:38:53;;;;;;;;;9.50;7.00;;;;;;;;6489617;47;9134;-59
2023/04/14 11:44:57;;;;;;;;;7.00;7.00;;;;;;;;6488662;39;8891;-58
2023/04/14 11:51:02;;;;;;;;;8.50;8.25;;;;;;;;6488542;47;8871;-58
2023/04/14 11:57:13;;;;;;;;;7.50;7.50;;;;;;;;6488702;39;8890;-59
2023/04/14 12:03:16;;;;;;;;;12.00;10.25;;;;;;;;6489321;39;8936;-57
2023/04/14 12:09:20;;;;;;;;;9.50;9.50;;;;;;;;6490463;39;8900;-58
2023/04/14 12:15:23;;;;;;;;;11.50;11.50;;;;;;;;6490147;39;8867;-56
2023/04/14 12:21:27;;;;;;;;;12.00;10.75;;;;;;;;6491077;31;9006;-57
2023/04/14 12:27:33;;;;;;;;;10.00;9.75;;;;;;;;6489653;31;8883;-59
2023/04/14 12:33:36;;;;;;;;;11.25;10.00;;;;;;;;6708678;36;8863;-57
2023/04/14 12:40:00;;;;;;;;;10.75;10.75;;;;;;;;7976050;36;8948;-56
2023/04/14 12:46:04;;;;;;;;;11.25;11.25;;;;;;;;6490963;39;8913;-57
2023/04/14 12:52:37;;;;;;;;;12.50;12.50;;;;;;;;6489655;31;8936;-58
2023/04/14 12:58:51;;;;;;;;;14.00;13.00;;;;;;;;6489311;46;8888;-57
2023/04/14 13:04:55;;;;;;;;;12.75;12.00;;;;;;;;6487167;39;8955;-57
2023/04/14 13:10:58;;;;;;;;;15.67;15.33;;;;;;;;6489532;46;8949;-58
2023/04/14 13:17:01;;;;;;;;;15.75;15.75;;;;;;;;6488909;31;8987;-57
2023/04/14 13:23:07;;;;;;;;;11.00;10.50;;;;;;;;6308752;39;10000858;-57
2023/04/14 13:29:12;;;;;;;;;11.00;11.00;;;;;;;;6490559;39;9570;-58
2023/04/14 13:35:16;;;;;;;;;14.50;11.00;;;;;;;;6490468;31;8891;-59
2023/04/14 13:41:19;;;;;;;;;17.00;17.00;;;;;;;;6489792;39;9012;-59
2023/04/14 13:47:21;;;;;;;;;13.00;12.25;;;;;;;;6489905;39;8860;-57
2023/04/14 13:53:24;;;;;;;;;16.25;14.00;;;;;;;;6489614;31;9021;-59
2023/04/14 13:59:26;;;;;;;;;10.75;10.50;;;;;;;;6489301;31;8942;-59
2023/04/14 14:05:30;;;;;;;;;13.00;13.00;;;;;;;;6488770;46;8925;-59
2023/04/14 14:11:34;;;;;;;;;15.50;13.75;;;;;;;;6489792;39;8954;-58
2023/04/14 14:17:40;;;;;;;;;12.00;10.00;;;;;;;;6488449;46;8917;-58
2023/04/14 14:23:42;;;;;;;;;19.00;16.50;;;;;;;;6489409;39;8852;-58
2023/04/14 14:29:45;;;;;;;;;13.75;13.75;;;;;;;;6489012;31;8926;-60
2023/04/14 14:35:49;;;;;;;;;17.25;15.00;;;;;;;;6488638;31;8899;-58
2023/04/14 14:41:52;;;;;;;;;16.25;16.25;;;;;;;;6489789;39;8866;-58
2023/04/14 14:47:57;;;;;;;;;20.25;20.25;;;;;;;;6488688;46;9000;-58
2023/04/14 14:54:01;;;;;;;;;24.50;23.50;;;;;;;;6489221;39;8896;-59
2023/04/14 15:00:12;;;;;;;;;23.00;21.25;;;;;;;;6489426;39;8829;-58
2023/04/14 15:06:14;;;;;;;;;25.50;23.00;;;;;;;;6489461;39;8925;-59
2023/04/14 15:12:19;;;;;;;;;23.00;22.25;;;;;;;;6488547;39;8913;-57
2023/04/14 15:18:24;;;;;;;;;21.75;20.50;;;;;;;;6488759;31;8944;-58
2023/04/14 15:24:27;;;;;;;;;25.33;24.00;;;;;;;;6488626;39;8833;-58
2023/04/14 15:30:30;;;;;;;;;21.33;20.67;;;;;;;;6489275;39;8885;-59
2023/04/14 15:36:33;;;;;;;;;25.25;24.00;;;;;;;;6489276;31;8905;-59
2023/04/14 15:42:40;;;;;;;;;11.67;11.00;;;;;;;;6490011;39;8890;-58
2023/04/14 15:48:44;;;;;;;;;17.25;17.25;;;;;;;;6489477;39;9314;-59
2023/04/14 15:54:49;;;;;;;;;18.67;17.00;;;;;;;;6491165;39;8866;-57
2023/04/14 16:00:54;;;;;;;;;22.00;18.33;;;;;;;;6490541;46;8868;-58
2023/04/14 16:06:58;;;;;;;;;17.67;17.67;;;;;;;;6489766;39;8886;-58
2023/04/14 16:13:00;;;;;;;;;20.67;19.00;;;;;;;;6490679;39;8912;-59
2023/04/14 16:19:04;;;;;;;;;20.00;20.00;;;;;;;;6490275;31;8850;-59
2023/04/14 16:25:07;;;;;;;;;14.33;14.33;;;;;;;;6489400;39;9507;-59
2023/04/14 16:31:09;;;;;;;;;10.00;10.00;;;;;;;;6721274;36;8966;-60
2023/04/14 16:37:12;;;;;;;;;20.00;15.00;;;;;;;;6490655;39;8912;-57
2023/04/14 16:43:16;;;;;;;;;12.33;11.67;;;;;;;;6490063;31;8964;-58
2023/04/14 16:49:20;;;;;;;;;6.33;6.33;;;;;;;;6490050;46;8920;-58
2023/04/14 16:55:23;;;;;;;;;10.33;9.33;;;;;;;;6489302;39;8849;-58
2023/04/14 17:01:25;;;;;;;;;8.33;7.33;;;;;;;;6488283;46;8959;-58
2023/04/14 17:07:28;;;;;;;;;7.00;5.00;;;;;;;;6490533;39;8901;-58
2023/04/14 17:13:33;;;;;;;;;9.00;7.67;;;;;;;;6489230;39;8932;-57
2023/04/14 17:19:41;;;;;;;;;6.00;6.00;;;;;;;;6489780;46;8885;-59
2023/04/14 17:25:45;;;;;;;;;9.00;8.67;;;;;;;;6489267;46;8896;-59
2023/04/14 17:31:50;;;;;;;;;11.00;7.67;;;;;;;;6489712;31;9022;-57
2023/04/14 17:37:55;;;;;;;;;6.00;6.00;;;;;;;;6488789;46;8924;-56
2023/04/14 17:44:00;;;;;;;;;3.33;3.33;;;;;;;;6489674;39;8882;-57
2023/04/14 17:50:06;;;;;;;;;6.67;6.67;;;;;;;;6489224;31;8868;-58
2023/04/14 17:56:10;;;;;;;;;4.67;4.67;;;;;;;;6489489;46;8893;-59
2023/04/14 18:02:24;;;;;;;;;8.00;7.00;;;;;;;;6489334;39;8960;-58
2023/04/14 18:09:11;;;;;;;;;6.67;6.67;;;;;;;;6489049;39;8874;-58
2023/04/14 18:15:14;;;;;;;;;7.67;7.67;;;;;;;;6488915;39;8844;-58
2023/04/14 18:21:16;;;;;;;;;8.33;8.33;;;;;;;;6489107;31;9080;-58
2023/04/14 18:27:18;;;;;;;;;8.00;8.00;;;;;;;;6490011;31;8876;-58
2023/04/14 18:33:28;;;;;;;;;7.67;7.67;;;;;;;;6488928;46;8925;-59
2023/04/14 18:39:35;;;;;;;;;8.33;8.33;;;;;;;;6489005;39;8993;-59
2023/04/14 18:45:56;;;;;;;;;6.00;6.00;;;;;;;;6488527;39;8890;-58
2023/04/14 18:52:02;;;;;;;;;5.67;5.67;;;;;;;;8205471;31;9625;-57
2023/04/14 18:58:11;;;;;;;;;7.00;7.00;;;;;;;;6488974;39;9018;-57
2023/04/14 19:04:17;;;;;;;;;8.33;8.33;;;;;;;;6489482;39;8928;-59
2023/04/14 19:10:20;;;;;;;;;10.00;8.67;;;;;;;;6489279;39;9858;-58
2023/04/14 19:16:24;;;;;;;;;7.00;7.00;;;;;;;;6488251;46;8935;-58
2023/04/14 19:22:27;;;;;;;;;9.00;7.00;;;;;;;;6488829;31;8866;-59
2023/04/14 19:28:32;;;;;;;;;8.33;8.00;;;;;;;;6308266;36;10000379;-57
2023/04/14 19:34:36;;;;;;;;;6.33;6.33;;;;;;;;6488408;39;8913;-57
2023/04/14 19:40:47;;;;;;;;;9.33;7.00;;;;;;;;6489510;47;8908;-59
2023/04/14 19:46:55;;;;;;;;;5.33;5.33;;;;;;;;6488219;46;8869;-57
2023/04/14 19:52:59;;;;;;;;;7.67;6.00;;;;;;;;6489639;31;8905;-57
2023/04/14 19:59:02;;;;;;;;;6.67;6.67;;;;;;;;6487658;39;8940;-57
2023/04/14 20:05:05;;;;;;;;;9.33;9.00;;;;;;;;6487952;47;8929;-58
2023/04/14 20:11:09;;;;;;;;;8.00;8.00;;;;;;;;6488516;39;9058;-56
2023/04/14 20:17:12;;;;;;;;;8.00;6.33;;;;;;;;6487917;31;9516;-57
2023/04/14 20:23:14;;;;;;;;;9.33;8.00;;;;;;;;6488965;39;9526;-58
2023/04/14 20:29:18;;;;;;;;;7.33;7.00;;;;;;;;6489131;46;8919;-57
2023/04/14 20:35:24;;;;;;;;;7.33;7.33;;;;;;;;6490168;39;8909;-57
2023/04/14 20:41:28;;;;;;;;;7.33;7.33;;;;;;;;6489989;46;8948;-58
2023/04/14 20:47:35;;;;;;;;;7.00;7.00;;;;;;;;6489651;39;8969;-59
2023/04/14 20:53:37;;;;;;;;;9.00;9.00;;;;;;;;6489857;31;8868;-58
2023/04/14 20:59:40;;;;;;;;;8.67;8.00;;;;;;;;6490952;31;8865;-59
2023/04/14 21:05:43;;;;;;;;;10.67;8.33;;;;;;;;6491168;39;8881;-59
2023/04/14 21:11:46;;;;;;;;;7.67;6.33;;;;;;;;6490102;39;9554;-56
2023/04/14 21:18:11;;;;;;;;;4.00;4.00;;;;;;;;6491072;39;8925;-59
2023/04/14 21:24:14;;;;;;;;;7.00;7.00;;;;;;;;6490100;46;8889;-58
2023/04/14 21:30:17;;;;;;;;;6.67;6.67;;;;;;;;6490047;46;8947;-54
2023/04/14 21:36:21;;;;;;;;;7.00;7.00;;;;;;;;6491398;31;8918;-58
2023/04/14 21:42:24;;;;;;;;;7.33;7.33;;;;;;;;6489935;31;8844;-58
2023/04/14 21:48:35;;;;;;;;;7.67;7.67;;;;;;;;6489311;39;8893;-58
2023/04/14 21:54:40;;;;;;;;;8.33;8.33;;;;;;;;6490124;31;8963;-59
2023/04/14 22:00:43;;;;;;;;;9.00;7.00;;;;;;;;6489241;39;9760;-58
2023/04/14 22:06:46;;;;;;;;;12.67;8.33;;;;;;;;6489116;39;8877;-58
2023/04/14 22:12:49;;;;;;;;;19.67;15.33;;;;;;;;6488442;46;8942;-58
2023/04/14 22:18:52;;;;;;;;;14.00;12.67;;;;;;;;6489763;39;9253;-58
2023/04/14 22:24:55;;;;;;;;;15.00;15.00;;;;;;;;6488545;46;8945;-57
2023/04/14 22:31:01;;;;;;;;;17.33;13.00;;;;;;;;6488987;39;8931;-56
2023/04/14 22:37:06;;;;;;;;;18.33;14.00;;;;;;;;6489091;39;8910;-58
2023/04/14 22:43:12;;;;;;;;;8.00;7.33;;;;;;;;6489049;39;8857;-58
2023/04/14 22:49:16;;;;;;;;;16.00;12.33;;;;;;;;6488958;46;8866;-58
2023/04/14 22:55:19;;;;;;;;;10.67;10.67;;;;;;;;6489325;39;8980;-57
2023/04/14 23:01:24;;;;;;;;;14.67;10.67;;;;;;;;6489227;39;8889;-58
2023/04/14 23:07:28;;;;;;;;;8.00;8.00;;;;;;;;6489083;39;8900;-57
2023/04/14 23:13:32;;;;;;;;;10.00;8.67;;;;;;;;7828126;36;9569;-57
2023/04/14 23:19:35;;;;;;;;;8.67;7.67;;;;;;;;6674880;36;8929;-59
2023/04/14 23:25:40;;;;;;;;;7.00;7.00;;;;;;;;6488595;39;8889;-58
2023/04/14 23:31:44;;;;;;;;;12.33;8.67;;;;;;;;6487670;46;9072;-57
2023/04/14 23:37:50;;;;;;;;;10.00;8.67;;;;;;;;6489839;39;8904;-57
2023/04/14 23:43:53;;;;;;;;;14.00;8.00;;;;;;;;6488317;47;8985;-57
2023/04/14 23:49:56;;;;;;;;;7.67;6.00;;;;;;;;6487721;47;8947;-57
2023/04/14 23:56:00;;;;;;;;;12.67;8.67;;;;;;;;6488746;47;8870;-58
